Beecher, IL (60401)

5:27 PM CDT on September 29, 2016 (GMT -0500)
Prairie Crossing | | Change Station

Elev 748 ft 41.35 °N, 87.62 °W | Updated 16 seconds ago

Mostly Cloudy
Mostly Cloudy
64.9 °F
Feels Like 64.9 °F
N
6.0
Wind Variable Wind from NNE
Gusts 9.8 mph

Today
High -- | Low -- °F
--% Chance of Precip.
Yesterday
High -- | Low -- °F
Precip. -- in
Pressure 30.17 in
Visibility 10.0 miles
Clouds Scattered Clouds 1800 ft
Mostly Cloudy 4200 ft
Dew Point 44 °F
Humidity 46%
Rainfall 0.27 in
Snow Depth Not available.
6:45 AM 6:34 PM
Waning Crescent, 1% visible
METAR KIGQ 292215Z AUTO 04014G23KT 10SM SCT018 BKN042 18/16 A3017 RMK AO2 T01800156
Pressure 30.17 in
Visibility 10.0 miles
Clouds Scattered Clouds 1800 ft
Mostly Cloudy 4200 ft
Dew Point 44 °F
Humidity 46%
Rainfall 0.27 in
Snow Depth Not available.
6:45 AM 6:34 PM
Waning Crescent, 1% visible
METAR KIGQ 292215Z AUTO 04014G23KT 10SM SCT018 BKN042 18/16 A3017 RMK AO2 T01800156

10-Day Weather Forecast

Almanac

Astronomy

Sep. 29, 2016 Rise Set
Actual Time
Civil Twilight
Nautical Twilight
Astronomical Twilight
Moon
Length of Visible Light
Length of Day
Tomorrow will be .
, % of the Moon is Illuminated

Today's Extremes

State Highs State Lows

Community

WunderPhotos

Upload Photos

1,942,591 photos uploaded!

WunderBlog® & News

Nearby

Air Quality

  Air Quality AQ Index Pollutant
Not available.

Snow Depth

Station Depth Elevation

Earthquake Activity

City Distance Mag. Time & Date
Minimum magnitude displayed is 2.5.

Coastal Water Temperatures

Place Temperature

Stations

Nearby Weather Stations

Station Location Temp. Windchill Dew Point Humidity Wind Precip. Elev Updated Type
                   

Watches & Warnings

There are currently no watches in effect.